sensor_id;sensor_type;location;lat;lon;timestamp;temperature;humidity
71396;DHT22;59888;55.814;37.132;2023-09-12T00:00:47;12.76;59.23
71396;DHT22;59888;55.814;37.132;2023-09-12T00:03:13;12.71;59.32
71396;DHT22;59888;55.814;37.132;2023-09-12T00:05:39;12.67;59.19
71396;DHT22;59888;55.814;37.132;2023-09-12T00:08:05;12.67;59.03
71396;DHT22;59888;55.814;37.132;2023-09-12T00:10:30;12.67;59.07
71396;DHT22;59888;55.814;37.132;2023-09-12T00:12:56;12.72;58.92
71396;DHT22;59888;55.814;37.132;2023-09-12T00:15:22;12.72;58.77
71396;DHT22;59888;55.814;37.132;2023-09-12T00:17:48;12.69;58.56
71396;DHT22;59888;55.814;37.132;2023-09-12T00:20:15;12.64;58.69
71396;DHT22;59888;55.814;37.132;2023-09-12T00:22:40;12.56;58.91
71396;DHT22;59888;55.814;37.132;2023-09-12T00:25:06;12.52;58.87
71396;DHT22;59888;55.814;37.132;2023-09-12T00:27:32;12.52;58.86
71396;DHT22;59888;55.814;37.132;2023-09-12T00:29:58;12.58;58.77
71396;DHT22;59888;55.814;37.132;2023-09-12T00:32:24;12.55;58.83
71396;DHT22;59888;55.814;37.132;2023-09-12T00:34:50;12.49;58.83
71396;DHT22;59888;55.814;37.132;2023-09-12T00:37:16;12.47;58.87
71396;DHT22;59888;55.814;37.132;2023-09-12T00:39:41;12.44;58.93
71396;DHT22;59888;55.814;37.132;2023-09-12T00:42:08;12.46;58.95
71396;DHT22;59888;55.814;37.132;2023-09-12T00:44:33;12.42;58.95
71396;DHT22;59888;55.814;37.132;2023-09-12T00:46:59;12.42;59.03
71396;DHT22;59888;55.814;37.132;2023-09-12T00:49:26;12.41;59.05
71396;DHT22;59888;55.814;37.132;2023-09-12T00:51:52;12.43;59.32
71396;DHT22;59888;55.814;37.132;2023-09-12T00:54:18;12.44;59.44
71396;DHT22;59888;55.814;37.132;2023-09-12T00:56:45;12.41;59.40
71396;DHT22;59888;55.814;37.132;2023-09-12T00:59:11;12.38;59.41
71396;DHT22;59888;55.814;37.132;2023-09-12T01:01:37;12.38;59.47
71396;DHT22;59888;55.814;37.132;2023-09-12T01:04:03;12.36;59.32
71396;DHT22;59888;55.814;37.132;2023-09-12T01:06:29;12.36;59.30
71396;DHT22;59888;55.814;37.132;2023-09-12T01:08:56;12.34;59.45
71396;DHT22;59888;55.814;37.132;2023-09-12T01:11:22;12.34;59.68
71396;DHT22;59888;55.814;37.132;2023-09-12T01:13:48;12.34;59.49
71396;DHT22;59888;55.814;37.132;2023-09-12T01:16:14;12.32;59.91
71396;DHT22;59888;55.814;37.132;2023-09-12T01:18:40;12.32;59.69
71396;DHT22;59888;55.814;37.132;2023-09-12T01:21:23;12.30;59.61
71396;DHT22;59888;55.814;37.132;2023-09-12T01:26:41;12.29;59.61
71396;DHT22;59888;55.814;37.132;2023-09-12T01:29:11;12.29;59.70
71396;DHT22;59888;55.814;37.132;2023-09-12T01:31:39;12.29;59.63
71396;DHT22;59888;55.814;37.132;2023-09-12T01:34:09;12.28;59.43
71396;DHT22;59888;55.814;37.132;2023-09-12T01:36:35;12.23;59.70
71396;DHT22;59888;55.814;37.132;2023-09-12T01:39:01;12.19;59.87
71396;DHT22;59888;55.814;37.132;2023-09-12T01:41:27;12.13;59.97
71396;DHT22;59888;55.814;37.132;2023-09-12T01:43:54;12.13;60.47
71396;DHT22;59888;55.814;37.132;2023-09-12T01:46:20;12.12;60.07
71396;DHT22;59888;55.814;37.132;2023-09-12T01:51:11;12.08;60.00
71396;DHT22;59888;55.814;37.132;2023-09-12T01:53:39;12.04;59.93
71396;DHT22;59888;55.814;37.132;2023-09-12T01:56:05;12.01;60.02
71396;DHT22;59888;55.814;37.132;2023-09-12T01:58:32;12.01;60.14
71396;DHT22;59888;55.814;37.132;2023-09-12T02:00:58;11.98;60.09
71396;DHT22;59888;55.814;37.132;2023-09-12T02:03:24;11.92;60.09
71396;DHT22;59888;55.814;37.132;2023-09-12T02:05:50;11.89;60.17
71396;DHT22;59888;55.814;37.132;2023-09-12T02:08:15;11.87;60.54
71396;DHT22;59888;55.814;37.132;2023-09-12T02:10:41;11.87;60.70
71396;DHT22;59888;55.814;37.132;2023-09-12T02:13:07;11.87;60.51
71396;DHT22;59888;55.814;37.132;2023-09-12T02:15:33;11.89;60.38
71396;DHT22;59888;55.814;37.132;2023-09-12T02:17:59;11.92;60.35
71396;DHT22;59888;55.814;37.132;2023-09-12T02:20:25;11.88;60.72
71396;DHT22;59888;55.814;37.132;2023-09-12T02:22:51;11.85;60.79
71396;DHT22;59888;55.814;37.132;2023-09-12T02:25:17;11.87;61.19
71396;DHT22;59888;55.814;37.132;2023-09-12T02:27:43;11.84;61.41
71396;DHT22;59888;55.814;37.132;2023-09-12T02:30:08;11.77;61.32
71396;DHT22;59888;55.814;37.132;2023-09-12T02:32:34;11.75;61.15
71396;DHT22;59888;55.814;37.132;2023-09-12T02:35:00;11.75;60.89
71396;DHT22;59888;55.814;37.132;2023-09-12T02:37:26;11.75;60.86
71396;DHT22;59888;55.814;37.132;2023-09-12T02:39:52;11.73;61.00
71396;DHT22;59888;55.814;37.132;2023-09-12T02:42:18;11.68;60.99
71396;DHT22;59888;55.814;37.132;2023-09-12T02:44:44;11.69;61.05
71396;DHT22;59888;55.814;37.132;2023-09-12T02:47:09;11.67;61.17
71396;DHT22;59888;55.814;37.132;2023-09-12T02:49:35;11.63;61.09
71396;DHT22;59888;55.814;37.132;2023-09-12T02:52:01;11.59;60.96
71396;DHT22;59888;55.814;37.132;2023-09-12T02:54:27;11.66;60.73
71396;DHT22;59888;55.814;37.132;2023-09-12T02:56:53;11.72;60.57
71396;DHT22;59888;55.814;37.132;2023-09-12T02:59:18;11.74;60.63
71396;DHT22;59888;55.814;37.132;2023-09-12T03:01:44;11.76;60.54
71396;DHT22;59888;55.814;37.132;2023-09-12T03:04:10;11.79;60.41
71396;DHT22;59888;55.814;37.132;2023-09-12T03:06:36;11.81;60.41
71396;DHT22;59888;55.814;37.132;2023-09-12T03:09:02;11.81;60.34
71396;DHT22;59888;55.814;37.132;2023-09-12T03:11:28;11.81;60.18
71396;DHT22;59888;55.814;37.132;2023-09-12T03:13:55;11.79;60.17
71396;DHT22;59888;55.814;37.132;2023-09-12T03:16:21;11.78;60.29
71396;DHT22;59888;55.814;37.132;2023-09-12T03:18:49;11.78;60.22
71396;DHT22;59888;55.814;37.132;2023-09-12T03:21:15;11.79;60.08
71396;DHT22;59888;55.814;37.132;2023-09-12T03:23:41;11.79;60.08
71396;DHT22;59888;55.814;37.132;2023-09-12T03:26:07;11.81;60.06
71396;DHT22;59888;55.814;37.132;2023-09-12T03:28:34;11.81;60.06
71396;DHT22;59888;55.814;37.132;2023-09-12T03:31:05;11.83;59.97
71396;DHT22;59888;55.814;37.132;2023-09-12T03:33:31;11.83;59.87
71396;DHT22;59888;55.814;37.132;2023-09-12T03:35:57;11.86;60.10
71396;DHT22;59888;55.814;37.132;2023-09-12T03:38:23;11.88;60.26
71396;DHT22;59888;55.814;37.132;2023-09-12T03:40:48;11.91;60.28
71396;DHT22;59888;55.814;37.132;2023-09-12T03:43:14;11.98;60.30
71396;DHT22;59888;55.814;37.132;2023-09-12T03:45:40;12.04;60.24
71396;DHT22;59888;55.814;37.132;2023-09-12T03:48:06;12.11;60.22
71396;DHT22;59888;55.814;37.132;2023-09-12T03:50:32;12.19;60.04
71396;DHT22;59888;55.814;37.132;2023-09-12T03:52:58;12.25;60.06
71396;DHT22;59888;55.814;37.132;2023-09-12T03:55:23;12.29;59.99
71396;DHT22;59888;55.814;37.132;2023-09-12T03:57:49;12.37;59.96
71396;DHT22;59888;55.814;37.132;2023-09-12T04:00:15;12.46;59.84
71396;DHT22;59888;55.814;37.132;2023-09-12T04:02:45;12.51;59.91
71396;DHT22;59888;55.814;37.132;2023-09-12T04:05:11;12.56;60.02
71396;DHT22;59888;55.814;37.132;2023-09-12T04:07:36;12.63;59.83
71396;DHT22;59888;55.814;37.132;2023-09-12T04:10:02;12.71;59.78
71396;DHT22;59888;55.814;37.132;2023-09-12T04:12:29;12.77;59.91
71396;DHT22;59888;55.814;37.132;2023-09-12T04:14:54;12.86;59.73
71396;DHT22;59888;55.814;37.132;2023-09-12T04:17:23;12.96;59.70
71396;DHT22;59888;55.814;37.132;2023-09-12T04:19:49;13.04;59.77
71396;DHT22;59888;55.814;37.132;2023-09-12T04:22:15;13.10;59.64
71396;DHT22;59888;55.814;37.132;2023-09-12T04:24:41;13.17;59.62
71396;DHT22;59888;55.814;37.132;2023-09-12T04:27:07;13.25;59.57
71396;DHT22;59888;55.814;37.132;2023-09-12T04:29:33;13.32;59.73
71396;DHT22;59888;55.814;37.132;2023-09-12T04:32:03;13.44;60.15
71396;DHT22;59888;55.814;37.132;2023-09-12T04:34:30;13.61;60.55
71396;DHT22;59888;55.814;37.132;2023-09-12T04:36:56;13.80;59.86
71396;DHT22;59888;55.814;37.132;2023-09-12T04:39:23;13.94;59.35
71396;DHT22;59888;55.814;37.132;2023-09-12T04:41:48;14.04;59.18
71396;DHT22;59888;55.814;37.132;2023-09-12T04:44:14;14.14;59.61
71396;DHT22;59888;55.814;37.132;2023-09-12T04:46:40;14.28;59.03
71396;DHT22;59888;55.814;37.132;2023-09-12T04:49:06;14.38;58.83
71396;DHT22;59888;55.814;37.132;2023-09-12T04:51:32;14.56;59.03
71396;DHT22;59888;55.814;37.132;2023-09-12T04:53:58;14.75;58.51
71396;DHT22;59888;55.814;37.132;2023-09-12T04:56:23;14.82;58.51
71396;DHT22;59888;55.814;37.132;2023-09-12T04:58:52;14.91;57.96
71396;DHT22;59888;55.814;37.132;2023-09-12T05:01:19;15.03;58.12
71396;DHT22;59888;55.814;37.132;2023-09-12T05:03:45;15.14;57.89
71396;DHT22;59888;55.814;37.132;2023-09-12T05:06:12;15.29;57.34
71396;DHT22;59888;55.814;37.132;2023-09-12T05:08:38;15.43;57.07
71396;DHT22;59888;55.814;37.132;2023-09-12T05:11:03;15.56;56.56
71396;DHT22;59888;55.814;37.132;2023-09-12T05:13:29;15.63;56.37
71396;DHT22;59888;55.814;37.132;2023-09-12T05:15:55;15.67;56.39
71396;DHT22;59888;55.814;37.132;2023-09-12T05:18:23;15.78;56.36
71396;DHT22;59888;55.814;37.132;2023-09-12T05:20:48;15.95;56.01
71396;DHT22;59888;55.814;37.132;2023-09-12T05:23:15;16.12;55.59
71396;DHT22;59888;55.814;37.132;2023-09-12T05:25:41;16.20;55.30
71396;DHT22;59888;55.814;37.132;2023-09-12T05:28:07;16.29;55.27
71396;DHT22;59888;55.814;37.132;2023-09-12T05:30:33;16.40;55.28
71396;DHT22;59888;55.814;37.132;2023-09-12T05:32:59;16.50;54.68
71396;DHT22;59888;55.814;37.132;2023-09-12T05:35:24;16.59;53.88
71396;DHT22;59888;55.814;37.132;2023-09-12T05:37:51;16.60;53.50
71396;DHT22;59888;55.814;37.132;2023-09-12T05:40:18;16.64;53.57
71396;DHT22;59888;55.814;37.132;2023-09-12T05:42:45;16.72;54.13
71396;DHT22;59888;55.814;37.132;2023-09-12T05:45:11;16.87;53.26
71396;DHT22;59888;55.814;37.132;2023-09-12T05:47:37;16.93;53.10
71396;DHT22;59888;55.814;37.132;2023-09-12T05:50:03;17.01;53.29
71396;DHT22;59888;55.814;37.132;2023-09-12T05:52:33;17.11;52.93
71396;DHT22;59888;55.814;37.132;2023-09-12T05:55:00;0.00;52.61
71396;DHT22;59888;55.814;37.132;2023-09-12T05:57:26;17.29;52.72
71396;DHT22;59888;55.814;37.132;2023-09-12T05:59:52;17.38;52.22
71396;DHT22;59888;55.814;37.132;2023-09-12T06:02:18;17.54;52.78
71396;DHT22;59888;55.814;37.132;2023-09-12T06:04:44;17.75;52.85
71396;DHT22;59888;55.814;37.132;2023-09-12T06:07:10;17.91;51.91
71396;DHT22;59888;55.814;37.132;2023-09-12T06:09:36;18.07;52.21
71396;DHT22;59888;55.814;37.132;2023-09-12T06:12:02;18.23;51.55
71396;DHT22;59888;55.814;37.132;2023-09-12T06:14:28;18.38;51.25
71396;DHT22;59888;55.814;37.132;2023-09-12T06:16:54;18.52;51.01
71396;DHT22;59888;55.814;37.132;2023-09-12T06:19:20;18.74;51.11
71396;DHT22;59888;55.814;37.132;2023-09-12T06:21:46;18.85;50.35
71396;DHT22;59888;55.814;37.132;2023-09-12T06:24:13;18.96;50.34
71396;DHT22;59888;55.814;37.132;2023-09-12T06:26:39;19.12;50.22
71396;DHT22;59888;55.814;37.132;2023-09-12T06:29:05;19.29;50.28
71396;DHT22;59888;55.814;37.132;2023-09-12T06:31:31;19.42;49.61
71396;DHT22;59888;55.814;37.132;2023-09-12T06:33:56;19.54;49.56
71396;DHT22;59888;55.814;37.132;2023-09-12T06:36:23;19.67;49.22
71396;DHT22;59888;55.814;37.132;2023-09-12T06:38:49;19.77;49.02
71396;DHT22;59888;55.814;37.132;2023-09-12T06:41:15;19.87;48.67
71396;DHT22;59888;55.814;37.132;2023-09-12T06:43:44;19.92;48.48
71396;DHT22;59888;55.814;37.132;2023-09-12T06:46:09;19.98;48.38
71396;DHT22;59888;55.814;37.132;2023-09-12T06:48:35;20.04;48.52
71396;DHT22;59888;55.814;37.132;2023-09-12T06:51:04;20.15;48.05
71396;DHT22;59888;55.814;37.132;2023-09-12T06:53:30;20.20;47.81
71396;DHT22;59888;55.814;37.132;2023-09-12T06:55:56;20.18;47.63
71396;DHT22;59888;55.814;37.132;2023-09-12T06:58:23;20.18;47.52
71396;DHT22;59888;55.814;37.132;2023-09-12T07:00:48;20.17;47.54
71396;DHT22;59888;55.814;37.132;2023-09-12T07:03:14;20.21;47.71
71396;DHT22;59888;55.814;37.132;2023-09-12T07:05:41;20.35;47.65
71396;DHT22;59888;55.814;37.132;2023-09-12T07:08:06;20.42;47.61
71396;DHT22;59888;55.814;37.132;2023-09-12T07:10:32;20.59;47.33
71396;DHT22;59888;55.814;37.132;2023-09-12T07:12:58;20.59;46.89
71396;DHT22;59888;55.814;37.132;2023-09-12T07:15:24;20.61;46.99
71396;DHT22;59888;55.814;37.132;2023-09-12T07:17:49;20.66;47.02
71396;DHT22;59888;55.814;37.132;2023-09-12T07:20:16;20.76;47.04
71396;DHT22;59888;55.814;37.132;2023-09-12T07:22:43;20.86;46.68
71396;DHT22;59888;55.814;37.132;2023-09-12T07:25:09;20.89;46.45
71396;DHT22;59888;55.814;37.132;2023-09-12T07:27:37;20.92;46.77
71396;DHT22;59888;55.814;37.132;2023-09-12T07:30:04;21.07;46.44
71396;DHT22;59888;55.814;37.132;2023-09-12T07:32:30;21.17;46.46
71396;DHT22;59888;55.814;37.132;2023-09-12T07:34:56;21.25;46.28
71396;DHT22;59888;55.814;37.132;2023-09-12T07:37:22;21.33;46.19
71396;DHT22;59888;55.814;37.132;2023-09-12T07:39:48;21.40;46.13
71396;DHT22;59888;55.814;37.132;2023-09-12T07:42:14;21.51;46.02
71396;DHT22;59888;55.814;37.132;2023-09-12T07:44:40;21.58;45.51
71396;DHT22;59888;55.814;37.132;2023-09-12T07:47:06;21.54;45.25
71396;DHT22;59888;55.814;37.132;2023-09-12T07:49:33;21.52;45.24
71396;DHT22;59888;55.814;37.132;2023-09-12T07:51:58;21.50;45.13
71396;DHT22;59888;55.814;37.132;2023-09-12T07:54:24;21.49;45.52
71396;DHT22;59888;55.814;37.132;2023-09-12T07:56:50;21.54;45.25
71396;DHT22;59888;55.814;37.132;2023-09-12T07:59:16;21.61;45.12
71396;DHT22;59888;55.814;37.132;2023-09-12T08:01:42;21.66;45.14
71396;DHT22;59888;55.814;37.132;2023-09-12T08:04:08;21.72;45.10
71396;DHT22;59888;55.814;37.132;2023-09-12T08:06:33;21.79;44.89
71396;DHT22;59888;55.814;37.132;2023-09-12T08:08:59;21.70;44.66
71396;DHT22;59888;55.814;37.132;2023-09-12T08:11:26;21.73;45.27
71396;DHT22;59888;55.814;37.132;2023-09-12T08:13:53;21.90;44.90
71396;DHT22;59888;55.814;37.132;2023-09-12T08:16:19;22.06;44.85
71396;DHT22;59888;55.814;37.132;2023-09-12T08:18:45;22.18;44.32
71396;DHT22;59888;55.814;37.132;2023-09-12T08:21:10;22.24;44.13
71396;DHT22;59888;55.814;37.132;2023-09-12T08:23:36;22.24;43.80
71396;DHT22;59888;55.814;37.132;2023-09-12T08:26:02;22.25;43.80
71396;DHT22;59888;55.814;37.132;2023-09-12T08:28:28;22.29;43.65
71396;DHT22;59888;55.814;37.132;2023-09-12T08:30:53;22.29;43.52
71396;DHT22;59888;55.814;37.132;2023-09-12T08:33:19;22.27;43.51
71396;DHT22;59888;55.814;37.132;2023-09-12T08:35:45;22.28;43.74
71396;DHT22;59888;55.814;37.132;2023-09-12T08:38:11;22.44;43.67
71396;DHT22;59888;55.814;37.132;2023-09-12T08:40:37;22.57;43.63
71396;DHT22;59888;55.814;37.132;2023-09-12T08:43:03;22.75;43.54
71396;DHT22;59888;55.814;37.132;2023-09-12T08:45:29;22.82;42.77
71396;DHT22;59888;55.814;37.132;2023-09-12T08:47:56;22.95;43.28
71396;DHT22;59888;55.814;37.132;2023-09-12T08:50:22;23.12;42.85
71396;DHT22;59888;55.814;37.132;2023-09-12T08:52:54;23.24;42.81
71396;DHT22;59888;55.814;37.132;2023-09-12T08:55:20;23.42;42.40
71396;DHT22;59888;55.814;37.132;2023-09-12T08:57:47;23.59;42.29
71396;DHT22;59888;55.814;37.132;2023-09-12T09:00:13;23.70;41.86
71396;DHT22;59888;55.814;37.132;2023-09-12T09:02:40;23.86;41.82
71396;DHT22;59888;55.814;37.132;2023-09-12T09:05:07;24.03;41.40
71396;DHT22;59888;55.814;37.132;2023-09-12T09:07:43;23.95;40.86
71396;DHT22;59888;55.814;37.132;2023-09-12T09:10:14;24.00;41.19
71396;DHT22;59888;55.814;37.132;2023-09-12T09:12:42;24.20;41.09
71396;DHT22;59888;55.814;37.132;2023-09-12T09:15:27;24.34;40.68
71396;DHT22;59888;55.814;37.132;2023-09-12T09:17:53;24.41;40.04
71396;DHT22;59888;55.814;37.132;2023-09-12T09:20:32;24.45;40.30
71396;DHT22;59888;55.814;37.132;2023-09-12T09:23:03;24.49;40.25
71396;DHT22;59888;55.814;37.132;2023-09-12T09:25:34;24.55;40.15
71396;DHT22;59888;55.814;37.132;2023-09-12T09:28:03;24.56;40.30
71396;DHT22;59888;55.814;37.132;2023-09-12T09:33:05;24.68;40.20
71396;DHT22;59888;55.814;37.132;2023-09-12T09:35:31;24.61;39.81
71396;DHT22;59888;55.814;37.132;2023-09-12T09:37:56;24.54;39.69
71396;DHT22;59888;55.814;37.132;2023-09-12T09:40:23;24.45;39.56
71396;DHT22;59888;55.814;37.132;2023-09-12T09:42:53;24.28;39.07
71396;DHT22;59888;55.814;37.132;2023-09-12T09:45:18;24.16;38.74
71396;DHT22;59888;55.814;37.132;2023-09-12T09:47:44;24.13;38.90
71396;DHT22;59888;55.814;37.132;2023-09-12T09:50:13;24.11;39.02
71396;DHT22;59888;55.814;37.132;2023-09-12T09:52:39;24.15;39.80
71396;DHT22;59888;55.814;37.132;2023-09-12T09:55:06;24.20;39.36
71396;DHT22;59888;55.814;37.132;2023-09-12T09:57:36;24.00;39.12
71396;DHT22;59888;55.814;37.132;2023-09-12T10:00:02;23.99;39.28
71396;DHT22;59888;55.814;37.132;2023-09-12T10:02:35;24.05;39.52
71396;DHT22;59888;55.814;37.132;2023-09-12T10:05:04;24.19;39.09
71396;DHT22;59888;55.814;37.132;2023-09-12T10:07:31;24.34;39.13
71396;DHT22;59888;55.814;37.132;2023-09-12T10:09:58;24.40;38.41
71396;DHT22;59888;55.814;37.132;2023-09-12T10:12:25;24.30;38.43
71396;DHT22;59888;55.814;37.132;2023-09-12T10:14:54;24.28;38.33
71396;DHT22;59888;55.814;37.132;2023-09-12T10:17:20;24.34;38.43
71396;DHT22;59888;55.814;37.132;2023-09-12T10:19:54;24.41;38.42
71396;DHT22;59888;55.814;37.132;2023-09-12T10:22:23;24.45;38.76
71396;DHT22;59888;55.814;37.132;2023-09-12T10:24:49;24.53;38.26
71396;DHT22;59888;55.814;37.132;2023-09-12T10:27:15;24.49;38.15
71396;DHT22;59888;55.814;37.132;2023-09-12T10:29:42;24.40;37.52
71396;DHT22;59888;55.814;37.132;2023-09-12T10:32:13;24.35;37.80
71396;DHT22;59888;55.814;37.132;2023-09-12T10:34:39;24.29;37.66
71396;DHT22;59888;55.814;37.132;2023-09-12T10:37:10;24.26;37.80
71396;DHT22;59888;55.814;37.132;2023-09-12T10:39:38;24.20;36.99
71396;DHT22;59888;55.814;37.132;2023-09-12T10:42:04;24.18;37.31
71396;DHT22;59888;55.814;37.132;2023-09-12T10:44:30;24.24;37.25
71396;DHT22;59888;55.814;37.132;2023-09-12T10:46:57;24.17;37.62
71396;DHT22;59888;55.814;37.132;2023-09-12T10:49:23;24.16;37.55
71396;DHT22;59888;55.814;37.132;2023-09-12T10:51:49;24.23;37.60
71396;DHT22;59888;55.814;37.132;2023-09-12T10:54:16;24.25;37.43
71396;DHT22;59888;55.814;37.132;2023-09-12T10:56:42;24.30;37.06
71396;DHT22;59888;55.814;37.132;2023-09-12T10:59:10;24.30;36.69
71396;DHT22;59888;55.814;37.132;2023-09-12T11:01:40;24.34;37.16
71396;DHT22;59888;55.814;37.132;2023-09-12T11:06:44;24.50;36.98
71396;DHT22;59888;55.814;37.132;2023-09-12T11:09:27;24.60;36.74
71396;DHT22;59888;55.814;37.132;2023-09-12T11:11:54;24.72;36.93
71396;DHT22;59888;55.814;37.132;2023-09-12T11:14:20;24.75;36.33
71396;DHT22;59888;55.814;37.132;2023-09-12T11:19:51;24.86;36.74
71396;DHT22;59888;55.814;37.132;2023-09-12T11:22:29;24.84;36.48
71396;DHT22;59888;55.814;37.132;2023-09-12T11:25:02;24.91;35.82
71396;DHT22;59888;55.814;37.132;2023-09-12T11:27:32;24.98;35.87
71396;DHT22;59888;55.814;37.132;2023-09-12T11:30:04;25.05;35.95
71396;DHT22;59888;55.814;37.132;2023-09-12T11:32:31;25.07;36.06
71396;DHT22;59888;55.814;37.132;2023-09-12T11:34:59;25.03;35.60
71396;DHT22;59888;55.814;37.132;2023-09-12T11:37:25;25.06;36.40
71396;DHT22;59888;55.814;37.132;2023-09-12T11:39:52;25.00;33.75
71396;DHT22;59888;55.814;37.132;2023-09-12T11:42:18;24.86;32.73
71396;DHT22;59888;55.814;37.132;2023-09-12T11:44:44;24.48;33.88
71396;DHT22;59888;55.814;37.132;2023-09-12T11:47:10;24.51;34.53
71396;DHT22;59888;55.814;37.132;2023-09-12T11:49:38;24.56;34.28
71396;DHT22;59888;55.814;37.132;2023-09-12T11:52:07;24.70;34.47
71396;DHT22;59888;55.814;37.132;2023-09-12T11:54:33;24.79;33.99
71396;DHT22;59888;55.814;37.132;2023-09-12T11:56:59;24.88;33.83
71396;DHT22;59888;55.814;37.132;2023-09-12T11:59:25;24.92;34.29
71396;DHT22;59888;55.814;37.132;2023-09-12T12:01:52;24.91;33.89
71396;DHT22;59888;55.814;37.132;2023-09-12T12:04:21;24.90;33.86
71396;DHT22;59888;55.814;37.132;2023-09-12T12:06:47;24.92;33.77
71396;DHT22;59888;55.814;37.132;2023-09-12T12:09:13;24.97;33.67
71396;DHT22;59888;55.814;37.132;2023-09-12T12:11:41;25.06;33.56
71396;DHT22;59888;55.814;37.132;2023-09-12T12:14:09;25.12;33.93
71396;DHT22;59888;55.814;37.132;2023-09-12T12:16:35;25.18;33.05
71396;DHT22;59888;55.814;37.132;2023-09-12T12:19:01;25.30;33.34
71396;DHT22;59888;55.814;37.132;2023-09-12T12:21:27;25.38;32.88
71396;DHT22;59888;55.814;37.132;2023-09-12T12:23:59;25.44;32.51
71396;DHT22;59888;55.814;37.132;2023-09-12T12:26:25;25.48;33.48
71396;DHT22;59888;55.814;37.132;2023-09-12T12:28:52;25.65;33.09
71396;DHT22;59888;55.814;37.132;2023-09-12T12:31:18;26.11;33.24
71396;DHT22;59888;55.814;37.132;2023-09-12T12:33:48;27.06;32.75
71396;DHT22;59888;55.814;37.132;2023-09-12T12:36:13;28.45;31.34
71396;DHT22;59888;55.814;37.132;2023-09-12T12:38:39;30.69;29.35
71396;DHT22;59888;55.814;37.132;2023-09-12T12:41:09;33.23;27.42
71396;DHT22;59888;55.814;37.132;2023-09-12T12:43:34;35.37;25.74
71396;DHT22;59888;55.814;37.132;2023-09-12T12:46:01;0.00;0.00
71396;DHT22;59888;55.814;37.132;2023-09-12T12:48:31;38.75;23.79
71396;DHT22;59888;55.814;37.132;2023-09-12T12:50:57;40.09;22.46
71396;DHT22;59888;55.814;37.132;2023-09-12T12:53:40;41.15;21.86
71396;DHT22;59888;55.814;37.132;2023-09-12T12:56:06;42.33;21.40
71396;DHT22;59888;55.814;37.132;2023-09-12T12:58:33;43.17;21.21
71396;DHT22;59888;55.814;37.132;2023-09-12T13:00:58;43.57;20.32
71396;DHT22;59888;55.814;37.132;2023-09-12T13:03:24;44.18;20.05
71396;DHT22;59888;55.814;37.132;2023-09-12T13:05:51;44.80;20.57
71396;DHT22;59888;55.814;37.132;2023-09-12T13:08:17;0.00;0.00
71396;DHT22;59888;55.814;37.132;2023-09-12T13:10:43;0.00;0.00
71396;DHT22;59888;55.814;37.132;2023-09-12T13:13:09;0.00;0.00
71396;DHT22;59888;55.814;37.132;2023-09-12T13:15:35;0.00;0.00
71396;DHT22;59888;55.814;37.132;2023-09-12T13:18:01;0.00;0.00
71396;DHT22;59888;55.814;37.132;2023-09-12T13:20:27;0.00;0.00
71396;DHT22;59888;55.814;37.132;2023-09-12T13:22:53;0.00;0.00
71396;DHT22;59888;55.814;37.132;2023-09-12T13:25:18;0.00;0.00
71396;DHT22;59888;55.814;37.132;2023-09-12T13:27:46;0.00;0.00
71396;DHT22;59888;55.814;37.132;2023-09-12T13:30:12;0.00;0.00
71396;DHT22;59888;55.814;37.132;2023-09-12T13:32:38;0.00;0.00
71396;DHT22;59888;55.814;37.132;2023-09-12T13:35:04;0.00;0.00
71396;DHT22;59888;55.814;37.132;2023-09-12T13:37:30;0.00;0.00
71396;DHT22;59888;55.814;37.132;2023-09-12T13:39:56;0.00;0.00
71396;DHT22;59888;55.814;37.132;2023-09-12T13:42:23;0.00;0.00
71396;DHT22;59888;55.814;37.132;2023-09-12T13:44:50;0.00;0.00
71396;DHT22;59888;55.814;37.132;2023-09-12T13:47:16;0.00;0.00
71396;DHT22;59888;55.814;37.132;2023-09-12T13:49:48;0.00;0.00
71396;DHT22;59888;55.814;37.132;2023-09-12T13:52:14;0.00;0.00
71396;DHT22;59888;55.814;37.132;2023-09-12T13:54:42;0.00;0.00
71396;DHT22;59888;55.814;37.132;2023-09-12T13:57:08;0.00;0.00
71396;DHT22;59888;55.814;37.132;2023-09-12T13:59:34;0.00;0.00
71396;DHT22;59888;55.814;37.132;2023-09-12T14:01:59;0.00;0.00
71396;DHT22;59888;55.814;37.132;2023-09-12T14:04:25;0.00;0.00
71396;DHT22;59888;55.814;37.132;2023-09-12T14:06:51;0.00;0.00
71396;DHT22;59888;55.814;37.132;2023-09-12T14:09:17;0.00;0.00
71396;DHT22;59888;55.814;37.132;2023-09-12T14:11:43;0.00;0.00
71396;DHT22;59888;55.814;37.132;2023-09-12T14:14:09;0.00;0.00
71396;DHT22;59888;55.814;37.132;2023-09-12T14:16:34;0.00;0.00
71396;DHT22;59888;55.814;37.132;2023-09-12T14:19:00;0.00;0.00
71396;DHT22;59888;55.814;37.132;2023-09-12T14:21:26;0.00;0.00
71396;DHT22;59888;55.814;37.132;2023-09-12T14:23:52;0.00;0.00
71396;DHT22;59888;55.814;37.132;2023-09-12T14:26:17;0.00;0.00
71396;DHT22;59888;55.814;37.132;2023-09-12T14:28:43;0.00;0.00
71396;DHT22;59888;55.814;37.132;2023-09-12T14:31:09;0.00;0.00
71396;DHT22;59888;55.814;37.132;2023-09-12T14:33:40;0.00;0.00
71396;DHT22;59888;55.814;37.132;2023-09-12T14:36:07;0.00;0.00
71396;DHT22;59888;55.814;37.132;2023-09-12T14:38:33;0.00;0.00
71396;DHT22;59888;55.814;37.132;2023-09-12T14:40:59;0.00;0.00
71396;DHT22;59888;55.814;37.132;2023-09-12T14:43:25;0.00;0.00
71396;DHT22;59888;55.814;37.132;2023-09-12T14:45:56;0.00;0.00
71396;DHT22;59888;55.814;37.132;2023-09-12T14:48:22;0.00;0.00
71396;DHT22;59888;55.814;37.132;2023-09-12T14:50:48;0.00;0.00
71396;DHT22;59888;55.814;37.132;2023-09-12T14:53:14;0.00;0.00
71396;DHT22;59888;55.814;37.132;2023-09-12T14:55:41;0.00;0.00
71396;DHT22;59888;55.814;37.132;2023-09-12T14:58:06;42.13;18.76
71396;DHT22;59888;55.814;37.132;2023-09-12T15:00:32;41.75;18.94
71396;DHT22;59888;55.814;37.132;2023-09-12T15:03:00;41.19;18.51
71396;DHT22;59888;55.814;37.132;2023-09-12T15:05:26;40.68;18.96
71396;DHT22;59888;55.814;37.132;2023-09-12T15:07:52;40.18;19.99
71396;DHT22;59888;55.814;37.132;2023-09-12T15:10:18;39.69;19.54
71396;DHT22;59888;55.814;37.132;2023-09-12T15:12:44;38.86;19.69
71396;DHT22;59888;55.814;37.132;2023-09-12T15:15:10;37.43;20.54
71396;DHT22;59888;55.814;37.132;2023-09-12T15:17:36;36.06;21.19
71396;DHT22;59888;55.814;37.132;2023-09-12T15:20:01;34.86;22.16
71396;DHT22;59888;55.814;37.132;2023-09-12T15:22:30;33.81;22.47
71396;DHT22;59888;55.814;37.132;2023-09-12T15:24:56;32.77;23.26
71396;DHT22;59888;55.814;37.132;2023-09-12T15:27:22;31.88;23.91
71396;DHT22;59888;55.814;37.132;2023-09-12T15:29:48;31.09;24.44